HOURLY OBS INDEX

028

Peninsula - south

LOCKHART RIVER AIRPORT

Site: 028008
Alt: 18.5m
155km E of WEIPA


  Time     Wind        Temp  DP   Baro     Rain since   Rain past  Vis(m), Cloud(base in m), Weather
  local        km/h                         9am  last   hr   10m    
Wed 15:00  ESE 26/ 39  28.7 18.5  1011.3    0.0   0.0   0.0   0.0   10000|SC1080 
Wed 15:30   SE 30/ 43  28.4 17.6  1011.1    0.0   0.0   0.0   0.0   10000 
Wed 16:00  ESE 28/ 43  28.1 18.2  1011.0    0.0   0.0   0.0   0.0   10000 
Wed 16:30   SE 30/ 41  27.2 17.9  1011.2    0.0   0.0   0.0   0.0   10000 
Wed 16:38   SE 28/ 46  27.0 17.5  1011.3    0.0   0.0  ----   0.0   10000 
Wed 17:00  ESE 24/ 35  26.7 17.2  1011.4    0.0   0.0   0.0   0.0   10000 
Wed 17:30  ESE 22/ 35  26.1 17.2  1011.7    0.0   0.0   0.0   0.0   10000 
Wed 18:00  ESE 17/ 26  25.6 18.0  1011.8    0.0   0.0   0.0   0.0   10000 
Wed 18:30  ESE 17/ 24  24.8 18.3  1012.4    0.0   0.0   0.0   0.0   10000 
Wed 19:00   SE 17/ 30  24.7 18.6  1012.8    0.0   0.0   0.0   0.0   10000|SC 870 
Wed 19:30  ESE 15/ 20  24.4 18.6  1013.2    0.0   0.0   0.0   0.0   10000 
Wed 20:00  ESE 15/ 22  24.3 18.7  1013.4    0.0   0.0   0.0   0.0   10000|SC 870 
Wed 20:30   SE 19/ 32  24.6 19.0  1013.7    0.0   0.0   0.0   0.0   10000|SC 870 

PALMERVILLE

Site: 028004
Alt: 203.8m
138km WSW of COOKTOWN


  Time     Wind        Temp  DP   Baro     Rain since   Rain past  Vis(m), Cloud(base in m), Weather
  local        km/h                         9am  last   hr   10m    
Wed 15:00    S 13/ 28  32.8  7.6  1009.8    0.0   0.0   0.0   0.0   ----- 
Wed 15:30  ENE  7/ 13  32.3  8.5  1009.8    0.0   0.0   0.0   0.0   ----- 
Wed 16:00    E 15/ 26  31.6 12.4  1010.0    0.0   0.0   0.0   0.0   ----- 
Wed 16:30  ENE 11/ 20  31.4 12.2  1010.2    0.0   0.0   0.0   0.0   ----- 
Wed 17:00  ENE 13/ 20  30.7 12.6  1010.4    0.0   0.0   0.0   0.0   ----- 
Wed 17:30  ENE 13/ 20  30.4 13.2  1010.6    0.0   0.0   0.0   0.0   ----- 
Wed 18:00  ENE 11/ 20  29.2 13.0  1010.9    0.0   0.0   0.0   0.0   ----- 
Wed 18:30  ENE 13/ 22  28.2 13.3  1011.3    0.0   0.0   0.0   0.0   ----- 
Wed 19:00  ENE 17/ 22  27.4 13.7  1011.9    0.0   0.0   0.0   0.0   ----- 
Wed 19:30   NE 17/ 28  26.5 13.9  1012.7    0.0   0.0   0.0   0.0   ----- 
Wed 20:00   NE 15/ 24  25.9 14.4  1013.5    0.0   0.0   0.0   0.0   ----- 
Wed 20:30  NNE 13/ 19  25.1 14.6  1014.0    0.0   0.0   0.0   0.0   -----